Axtell, Nebraska
Current Conditions -  °F | °C
As of 5:35 AM on Wednesday 26 Nov 2014 (Local Time) from KHDE Reporting Station
Broken Clouds Broken Clouds  
Wind Chill: 26°   Ceiling: 4700
Heat Index: 36°   Visibility: 10mi
Dew Point: 22°   Wind: 18mph
Humidity: 58%   Direction: 320°NW
Pressure: 30.02"   Gusts: 25mph
Location:  40.48°N, 99.13°W
Report Text: KHDE 261135Z AUTO 32016G22KT 10SM SCT038 BKN047 02/M05 A3002 RMK AO2 T00221054
Loading
Personal Weather Stations






























Interactive Weather Map New forecast layout! Learn more

10-Day Weather Forecast

Advertisements
Track Severe Weather on mobile